createdAt,value
2018-09-20T00:00:09.735Z,9.43
2018-09-20T00:02:14.511Z,6.60
2018-09-20T00:04:19.150Z,5.73
2018-09-20T00:06:23.868Z,5.00
2018-09-20T00:08:28.940Z,6.20
2018-09-20T00:10:36.598Z,6.50
2018-09-20T00:12:41.788Z,5.87
2018-09-20T00:14:46.683Z,5.17
2018-09-20T00:16:51.759Z,5.40
2018-09-20T00:18:56.683Z,4.97
2018-09-20T00:21:01.387Z,3.67
2018-09-20T00:23:06.409Z,5.37
2018-09-20T00:25:15.313Z,4.80
2018-09-20T00:27:20.437Z,4.70
2018-09-20T00:29:25.662Z,6.70
2018-09-20T00:31:30.858Z,5.00
2018-09-20T00:33:35.705Z,5.17
2018-09-20T00:35:40.803Z,3.20
2018-09-20T00:37:45.758Z,4.83
2018-09-20T00:39:50.659Z,5.20
2018-09-20T00:41:55.741Z,2.73
2018-09-20T00:44:00.684Z,4.47
2018-09-20T00:46:05.668Z,5.00
2018-09-20T00:48:10.655Z,3.37
2018-09-20T00:50:15.431Z,3.93
2018-09-20T00:52:20.215Z,2.90
2018-09-20T00:54:25.351Z,3.60
2018-09-20T00:56:30.251Z,2.70
2018-09-20T00:58:35.128Z,2.73
2018-09-20T01:00:39.798Z,2.50
2018-09-20T01:02:45.421Z,3.90
2018-09-20T01:04:50.548Z,4.00
2018-09-20T01:06:55.427Z,3.20
2018-09-20T01:09:00.404Z,4.10
2018-09-20T01:11:08.423Z,3.13
2018-09-20T01:13:13.784Z,3.47
2018-09-20T01:15:18.808Z,2.73
2018-09-20T01:17:27.416Z,4.13
2018-09-20T01:19:32.689Z,2.77
2018-09-20T01:21:38.175Z,2.50
2018-09-20T01:23:43.196Z,3.43
2018-09-20T01:25:48.186Z,3.87
2018-09-20T01:27:53.061Z,4.73
2018-09-20T01:29:57.981Z,3.00
2018-09-20T01:32:03.123Z,2.37
2018-09-20T01:34:07.931Z,3.20
2018-09-20T01:36:12.778Z,2.40
2018-09-20T01:38:17.801Z,3.50
2018-09-20T01:40:22.874Z,2.80
2018-09-20T01:42:27.740Z,4.03
2018-09-20T01:44:32.665Z,3.27
2018-09-20T01:46:37.639Z,3.50
2018-09-20T01:48:42.933Z,6.10
2018-09-20T01:50:47.648Z,4.53
2018-09-20T01:52:52.358Z,4.20
2018-09-20T01:54:57.178Z,4.93
2018-09-20T01:57:02.219Z,5.00
2018-09-20T01:59:07.262Z,4.77
2018-09-20T02:01:12.220Z,5.30
2018-09-20T02:03:17.106Z,9.20
2018-09-20T02:05:21.596Z,5.70
2018-09-20T02:07:26.594Z,6.13
2018-09-20T02:09:31.472Z,5.77
2018-09-20T02:11:36.413Z,5.73
2018-09-20T02:13:43.889Z,5.20
2018-09-20T02:15:48.887Z,5.97
2018-09-20T02:17:53.381Z,5.80
2018-09-20T02:19:58.295Z,7.73
2018-09-20T02:22:03.140Z,7.13
2018-09-20T02:24:08.083Z,7.13
2018-09-20T02:26:13.114Z,6.90
2018-09-20T02:28:18.009Z,6.37
2018-09-20T02:30:23.062Z,6.97
2018-09-20T02:32:28.068Z,6.77
2018-09-20T02:34:32.901Z,7.00
2018-09-20T02:36:37.752Z,6.37
2018-09-20T02:38:43.380Z,6.93
2018-09-20T02:40:48.095Z,6.87
2018-09-20T02:42:53.068Z,7.30
2018-09-20T02:44:57.740Z,7.57
2018-09-20T02:47:02.549Z,7.10
2018-09-20T02:49:07.679Z,6.10
2018-09-20T02:51:12.799Z,7.00
2018-09-20T02:53:17.427Z,8.03
2018-09-20T02:55:22.360Z,8.63
2018-09-20T02:57:27.485Z,7.10
2018-09-20T02:59:32.498Z,7.67
2018-09-20T03:01:37.353Z,7.53
2018-09-20T03:03:42.531Z,7.97
2018-09-20T03:05:47.591Z,7.43
2018-09-20T03:07:52.464Z,7.43
2018-09-20T03:09:57.494Z,7.93
2018-09-20T03:12:02.805Z,7.63
2018-09-20T03:14:07.775Z,7.80
2018-09-20T03:16:12.723Z,8.47
2018-09-20T03:18:17.519Z,7.87
2018-09-20T03:20:22.440Z,8.13
2018-09-20T03:22:27.368Z,8.27
2018-09-20T03:24:32.435Z,7.20
2018-09-20T03:26:37.533Z,7.80
2018-09-20T03:28:42.527Z,8.17
2018-09-20T03:30:47.893Z,6.93
2018-09-20T03:32:52.963Z,8.73
2018-09-20T03:34:58.198Z,6.90
2018-09-20T03:37:03.149Z,7.13
2018-09-20T03:39:08.268Z,6.80
2018-09-20T03:41:13.318Z,6.87
2018-09-20T03:43:18.456Z,7.13
2018-09-20T03:45:23.190Z,7.27
2018-09-20T03:47:27.955Z,7.57
2018-09-20T03:49:33.076Z,7.93
2018-09-20T03:51:37.997Z,7.90
2018-09-20T03:53:42.849Z,8.03
2018-09-20T03:55:47.881Z,7.30
2018-09-20T03:57:52.909Z,8.20
2018-09-20T03:59:57.833Z,8.30
2018-09-20T04:02:02.908Z,8.03
2018-09-20T04:04:07.594Z,7.00
2018-09-20T04:06:12.603Z,8.10
2018-09-20T04:08:17.766Z,8.40
2018-09-20T04:10:22.400Z,7.40
2018-09-20T04:12:27.357Z,7.60
2018-09-20T04:14:32.184Z,8.00
2018-09-20T04:16:37.294Z,8.27
2018-09-20T04:18:42.279Z,7.57
2018-09-20T04:20:47.300Z,7.20
2018-09-20T04:22:52.166Z,7.70
2018-09-20T04:24:57.383Z,7.50
2018-09-20T04:27:02.482Z,8.47
2018-09-20T04:29:07.245Z,7.97
2018-09-20T04:31:12.118Z,7.83
2018-09-20T04:33:17.334Z,7.80
2018-09-20T04:35:22.128Z,9.30
2018-09-20T04:37:26.995Z,7.83
2018-09-20T04:39:31.975Z,7.00
2018-09-20T04:41:36.985Z,7.50
2018-09-20T04:43:41.748Z,6.83
2018-09-20T04:45:46.783Z,7.90
2018-09-20T04:47:51.652Z,7.27
2018-09-20T04:49:56.441Z,8.63
2018-09-20T04:52:01.677Z,7.10
2018-09-20T04:54:06.472Z,7.50
2018-09-20T04:56:11.362Z,8.37
2018-09-20T04:58:16.141Z,7.20
2018-09-20T05:00:21.097Z,8.30
2018-09-20T05:02:26.200Z,7.50
2018-09-20T05:04:31.138Z,7.70
2018-09-20T05:06:36.512Z,7.57
2018-09-20T05:08:41.662Z,6.70
2018-09-20T05:10:46.553Z,7.43
2018-09-20T05:12:51.510Z,7.63
2018-09-20T05:14:56.595Z,7.17
2018-09-20T05:17:01.463Z,7.47
2018-09-20T05:19:06.415Z,7.53
2018-09-20T05:21:11.383Z,6.43
2018-09-20T05:23:16.410Z,8.23
2018-09-20T05:25:21.169Z,7.60
2018-09-20T05:27:26.121Z,8.30
2018-09-20T05:29:31.064Z,7.77
2018-09-20T05:31:35.878Z,7.47
2018-09-20T05:33:40.779Z,7.90
2018-09-20T05:35:45.842Z,8.83
2018-09-20T05:37:50.883Z,8.20
2018-09-20T05:39:55.712Z,7.73
2018-09-20T05:42:00.413Z,7.30
2018-09-20T05:44:05.553Z,7.30
2018-09-20T05:46:10.416Z,7.20
2018-09-20T05:48:16.065Z,7.40
2018-09-20T05:50:20.885Z,6.90
2018-09-20T05:52:25.669Z,7.30
2018-09-20T05:54:30.519Z,7.00
2018-09-20T05:56:35.229Z,8.07
2018-09-20T05:58:39.983Z,7.23
2018-09-20T06:00:45.607Z,8.37
2018-09-20T06:02:51.306Z,6.90
2018-09-20T06:04:56.822Z,8.43
2018-09-20T06:07:01.564Z,7.03
2018-09-20T06:09:07.037Z,8.07
2018-09-20T06:11:12.011Z,7.87
2018-09-20T06:13:17.138Z,8.20
2018-09-20T06:15:22.063Z,7.37
2018-09-20T06:17:27.738Z,7.10
2018-09-20T06:19:32.709Z,7.70
2018-09-20T06:21:37.652Z,7.77
2018-09-20T06:23:42.567Z,6.77
2018-09-20T06:25:47.770Z,7.40
2018-09-20T06:27:52.639Z,6.30
2018-09-20T06:29:57.777Z,7.37
2018-09-20T06:32:02.690Z,7.13
2018-09-20T06:34:08.514Z,7.50
2018-09-20T06:36:13.532Z,7.47
2018-09-20T06:38:18.654Z,6.83
2018-09-20T06:40:23.614Z,7.63
2018-09-20T06:42:28.340Z,6.67
2018-09-20T06:44:33.220Z,6.73
2018-09-20T06:46:38.074Z,6.53
2018-09-20T06:48:42.987Z,7.13
2018-09-20T06:50:47.752Z,7.27
2018-09-20T06:52:53.717Z,7.10
2018-09-20T06:54:58.552Z,6.37
2018-09-20T06:57:03.308Z,6.93
2018-09-20T06:59:08.394Z,7.47
2018-09-20T07:01:13.317Z,6.50
2018-09-20T07:03:18.169Z,8.67
2018-09-20T07:05:23.090Z,6.77
2018-09-20T07:07:28.020Z,7.13
2018-09-20T07:09:32.935Z,7.07
2018-09-20T07:11:37.746Z,7.07
2018-09-20T07:13:42.589Z,7.30
2018-09-20T07:15:47.557Z,6.73
2018-09-20T07:17:52.633Z,6.97
2018-09-20T07:19:57.441Z,6.83
2018-09-20T07:22:02.272Z,7.50
2018-09-20T07:24:07.482Z,6.37
2018-09-20T07:26:12.126Z,5.87
2018-09-20T07:28:16.814Z,5.87
2018-09-20T07:30:21.918Z,6.50
2018-09-20T07:32:26.763Z,13.20
2018-09-20T07:34:31.780Z,7.33
2018-09-20T07:36:36.503Z,7.10
2018-09-20T07:38:41.340Z,6.60
2018-09-20T07:40:46.288Z,6.97
2018-09-20T07:42:51.350Z,6.20
2018-09-20T07:44:56.106Z,6.03
2018-09-20T07:47:00.893Z,6.90
2018-09-20T07:49:05.584Z,6.50
2018-09-20T07:51:10.602Z,5.70
2018-09-20T07:53:15.549Z,6.30
2018-09-20T07:55:20.424Z,6.60
2018-09-20T07:57:28.069Z,6.33
2018-09-20T07:59:32.825Z,6.57
2018-09-20T08:01:37.736Z,7.00
2018-09-20T08:03:42.740Z,6.30
2018-09-20T08:05:47.648Z,6.23
2018-09-20T08:07:52.589Z,6.23
2018-09-20T08:09:57.462Z,6.30
2018-09-20T08:12:02.508Z,5.73
2018-09-20T08:14:07.437Z,5.93
2018-09-20T08:16:12.143Z,6.53
2018-09-20T08:18:16.944Z,5.83
2018-09-20T08:20:21.843Z,6.13
2018-09-20T08:22:26.933Z,5.60
2018-09-20T08:24:31.898Z,5.70
2018-09-20T08:26:36.989Z,5.93
2018-09-20T08:28:41.563Z,6.10
2018-09-20T08:30:46.560Z,5.87
2018-09-20T08:32:51.266Z,5.90
2018-09-20T08:34:56.338Z,5.60
2018-09-20T08:37:01.224Z,7.50
2018-09-20T08:39:05.936Z,5.90
2018-09-20T08:41:10.867Z,5.90
2018-09-20T08:43:15.684Z,5.30
2018-09-20T08:45:20.437Z,5.80
2018-09-20T08:47:25.331Z,5.07
2018-09-20T08:49:30.694Z,6.37
2018-09-20T08:51:35.541Z,5.67
2018-09-20T08:53:41.396Z,5.83
2018-09-20T08:55:46.295Z,6.17
2018-09-20T08:57:54.618Z,5.43
2018-09-20T08:59:59.677Z,6.00
2018-09-20T09:02:04.717Z,5.73
2018-09-20T09:04:09.728Z,5.10
2018-09-20T09:06:15.589Z,5.33
2018-09-20T09:08:20.447Z,5.17
2018-09-20T09:10:25.277Z,5.80
2018-09-20T09:12:30.307Z,6.57
2018-09-20T09:14:35.266Z,5.37
2018-09-20T09:16:40.243Z,5.37
2018-09-20T09:18:45.000Z,4.87
2018-09-20T09:20:49.971Z,5.90
2018-09-20T09:22:54.750Z,5.40
2018-09-20T09:24:59.778Z,5.87
2018-09-20T09:27:04.672Z,6.70
2018-09-20T09:29:09.526Z,6.07
2018-09-20T09:31:14.489Z,5.70
2018-09-20T09:33:19.221Z,6.30
2018-09-20T09:35:24.176Z,5.50
2018-09-20T09:37:29.126Z,5.60
2018-09-20T09:39:33.966Z,169.75
2018-09-20T09:41:38.717Z,109.53
2018-09-20T09:43:43.484Z,76.07
2018-09-20T09:45:48.185Z,141.73
2018-09-20T09:47:53.145Z,126.90
2018-09-20T09:49:57.995Z,102.62
2018-09-20T09:52:03.067Z,96.10
2018-09-20T09:54:07.991Z,90.90
2018-09-20T09:56:12.994Z,80.17
2018-09-20T09:58:17.907Z,77.63
2018-09-20T10:00:38.250Z,81.83
2018-09-20T10:02:43.087Z,86.53
2018-09-20T10:04:47.896Z,73.17
2018-09-20T10:06:53.074Z,67.00
2018-09-20T10:08:57.978Z,61.73
2018-09-20T10:11:02.846Z,62.07
2018-09-20T10:13:07.729Z,59.93
2018-09-20T10:15:12.533Z,57.07
2018-09-20T10:17:17.465Z,53.87
2018-09-20T10:19:22.303Z,54.17
2018-09-20T10:21:27.133Z,51.43
2018-09-20T10:23:32.111Z,48.33
2018-09-20T10:25:37.039Z,50.97
2018-09-20T10:27:42.023Z,48.93
2018-09-20T10:29:46.936Z,48.27
2018-09-20T10:31:51.668Z,35.70
2018-09-20T10:33:57.254Z,27.57
2018-09-20T10:36:02.111Z,21.73
2018-09-20T10:38:06.953Z,18.00
2018-09-20T10:40:11.894Z,14.37
2018-09-20T10:42:16.937Z,14.97
2018-09-20T10:44:21.844Z,11.63
2018-09-20T10:46:26.822Z,12.23
2018-09-20T10:48:31.700Z,11.80
2018-09-20T10:50:36.937Z,11.10
2018-09-20T10:52:41.731Z,9.73
2018-09-20T10:54:46.655Z,9.30
2018-09-20T10:56:51.640Z,11.47
2018-09-20T10:58:56.537Z,9.30
2018-09-20T11:01:01.321Z,8.23
2018-09-20T11:03:06.274Z,7.40
2018-09-20T11:05:11.390Z,10.23
2018-09-20T11:07:16.244Z,5.60
2018-09-20T11:09:21.289Z,8.37
2018-09-20T11:11:26.156Z,7.60
2018-09-20T11:13:30.958Z,6.63
2018-09-20T11:15:36.278Z,5.07
2018-09-20T11:17:41.191Z,6.20
2018-09-20T11:19:45.956Z,7.67
2018-09-20T11:21:51.306Z,7.70
2018-09-20T11:23:56.256Z,5.97
2018-09-20T11:26:01.870Z,9.90
2018-09-20T11:28:06.955Z,6.77
2018-09-20T11:30:11.710Z,7.67
2018-09-20T11:32:16.525Z,6.03
2018-09-20T11:34:21.662Z,5.50
2018-09-20T11:36:26.778Z,9.37
2018-09-20T11:38:31.713Z,5.43
2018-09-20T11:40:36.558Z,8.20
2018-09-20T11:42:41.551Z,5.80
2018-09-20T11:44:46.549Z,7.23
2018-09-20T11:46:52.512Z,6.80
2018-09-20T11:48:57.798Z,7.90
2018-09-20T11:51:02.833Z,16.70
2018-09-20T11:53:08.216Z,12.57
2018-09-20T11:55:13.359Z,10.40
2018-09-20T11:57:18.653Z,8.57
2018-09-20T11:59:24.414Z,10.90
2018-09-20T12:01:32.142Z,10.07
2018-09-20T12:03:37.217Z,8.80
2018-09-20T12:05:42.528Z,9.90
2018-09-20T12:07:48.180Z,7.67
2018-09-20T12:09:53.459Z,10.37
2018-09-20T12:11:58.597Z,11.87
2018-09-20T12:14:03.914Z,9.50
2018-09-20T12:16:09.734Z,9.90
2018-09-20T12:18:14.727Z,12.03
2018-09-20T12:20:20.080Z,8.37
2018-09-20T12:22:24.999Z,8.43
2018-09-20T12:24:30.515Z,10.93
2018-09-20T12:26:35.603Z,10.43
2018-09-20T12:28:40.878Z,10.20
2018-09-20T12:30:45.746Z,8.47
2018-09-20T12:32:51.316Z,10.73
2018-09-20T12:34:56.553Z,9.73
2018-09-20T12:37:01.654Z,9.07
2018-09-20T12:39:07.614Z,8.00
2018-09-20T12:41:12.753Z,9.60
2018-09-20T12:43:17.835Z,8.30
2018-09-20T12:45:23.267Z,10.73
2018-09-20T12:47:28.138Z,7.80
2018-09-20T12:49:33.585Z,8.43
2018-09-20T12:51:38.788Z,8.20
2018-09-20T12:53:43.968Z,10.70
2018-09-20T12:55:49.228Z,11.43
2018-09-20T12:57:54.440Z,8.33
2018-09-20T12:59:59.877Z,8.67
2018-09-20T13:02:05.214Z,8.57
2018-09-20T13:04:10.237Z,10.23
2018-09-20T13:06:15.824Z,9.07
2018-09-20T13:08:21.436Z,8.20
2018-09-20T13:10:26.489Z,11.33
2018-09-20T13:12:31.777Z,13.33
2018-09-20T13:14:37.065Z,9.37
2018-09-20T13:16:42.338Z,10.23
2018-09-20T13:18:47.586Z,12.57
2018-09-20T13:20:52.849Z,9.70
2018-09-20T13:22:57.945Z,12.30
2018-09-20T13:25:03.098Z,11.93
2018-09-20T13:27:08.105Z,18.83
2018-09-20T13:29:13.336Z,10.43
2018-09-20T13:31:18.090Z,11.30
2018-09-20T13:33:23.146Z,10.60
2018-09-20T13:35:28.020Z,11.53
2018-09-20T13:37:32.987Z,12.03
2018-09-20T13:39:38.070Z,11.87
2018-09-20T13:41:42.855Z,14.27
2018-09-20T13:43:47.771Z,8.47
2018-09-20T13:45:52.748Z,9.17
2018-09-20T13:47:58.301Z,14.70
2018-09-20T13:50:03.336Z,9.57
2018-09-20T13:52:08.249Z,9.10
2018-09-20T13:54:13.109Z,10.33
2018-09-20T13:56:18.246Z,13.67
2018-09-20T13:58:23.079Z,10.53
2018-09-20T14:00:27.969Z,9.33
2018-09-20T14:02:32.876Z,9.47
2018-09-20T14:04:37.922Z,8.27
2018-09-20T14:06:42.804Z,10.20
2018-09-20T14:08:48.023Z,12.37
2018-09-20T14:10:53.257Z,9.47
2018-09-20T14:12:58.157Z,10.00
2018-09-20T14:15:03.001Z,8.97
2018-09-20T14:17:08.147Z,9.17
2018-09-20T14:19:13.018Z,10.03
2018-09-20T14:21:17.781Z,9.40
2018-09-20T14:23:23.027Z,12.17
2018-09-20T14:25:27.985Z,10.17
2018-09-20T14:27:33.000Z,9.20
2018-09-20T14:29:38.042Z,9.77
2018-09-20T14:31:43.081Z,9.77
2018-09-20T14:33:47.824Z,8.90
2018-09-20T14:35:52.952Z,12.30
2018-09-20T14:37:58.331Z,9.33
2018-09-20T14:40:03.457Z,8.57
2018-09-20T14:42:08.469Z,8.23
2018-09-20T14:44:13.435Z,8.80
2018-09-20T14:46:18.338Z,8.00
2018-09-20T14:48:23.258Z,8.30
2018-09-20T14:50:29.003Z,11.40
2018-09-20T14:52:34.183Z,8.00
2018-09-20T14:54:39.021Z,8.53
2018-09-20T14:56:44.023Z,9.30
2018-09-20T14:58:49.005Z,9.03
2018-09-20T15:00:54.018Z,9.00
2018-09-20T15:02:58.937Z,9.77
2018-09-20T15:05:03.901Z,9.93
2018-09-20T15:07:08.825Z,8.00
2018-09-20T15:09:15.071Z,9.70
2018-09-20T15:11:20.078Z,8.53
2018-09-20T15:13:24.872Z,8.20
2018-09-20T15:15:29.718Z,11.00
2018-09-20T15:17:34.901Z,9.27
2018-09-20T15:19:39.672Z,9.00
2018-09-20T15:21:44.428Z,8.57
2018-09-20T15:23:49.489Z,8.60
2018-09-20T15:25:54.231Z,8.20
2018-09-20T15:27:59.037Z,9.87
2018-09-20T15:30:04.186Z,12.40
2018-09-20T15:32:09.160Z,11.57
2018-09-20T15:34:13.968Z,9.30
2018-09-20T15:36:19.025Z,8.20
2018-09-20T15:38:23.633Z,8.90
2018-09-20T15:40:28.320Z,9.80
2018-09-20T15:42:33.400Z,8.57
2018-09-20T15:44:38.195Z,9.27
2018-09-20T15:46:43.117Z,9.80
2018-09-20T15:48:48.282Z,8.80
2018-09-20T15:50:53.153Z,8.90
2018-09-20T15:52:58.087Z,9.00
2018-09-20T15:55:03.037Z,8.80
2018-09-20T15:57:07.844Z,8.17
2018-09-20T15:59:12.772Z,9.67
2018-09-20T16:01:17.785Z,8.23
2018-09-20T16:03:22.752Z,9.77
2018-09-20T16:05:27.593Z,8.63
2018-09-20T16:08:26.828Z,11.63
2018-09-20T16:10:31.968Z,9.20
2018-09-20T16:12:37.061Z,9.93
2018-09-20T16:14:41.935Z,10.27
2018-09-20T16:16:46.925Z,8.87
2018-09-20T16:18:51.790Z,8.50
2018-09-20T16:20:56.643Z,8.80
2018-09-20T16:23:01.633Z,8.10
2018-09-20T16:25:06.717Z,9.80
2018-09-20T16:27:11.527Z,9.70
2018-09-20T16:29:19.356Z,10.90
2018-09-20T16:31:24.016Z,9.87
2018-09-20T16:33:28.861Z,9.77
2018-09-20T16:35:34.131Z,9.40
2018-09-20T16:37:43.976Z,8.40
2018-09-20T16:39:49.134Z,9.83
2018-09-20T16:41:54.395Z,8.93
2018-09-20T16:43:59.387Z,8.03
2018-09-20T16:46:04.876Z,8.70
2018-09-20T16:48:09.931Z,8.10
2018-09-20T16:50:14.812Z,8.93
2018-09-20T16:52:19.517Z,7.90
2018-09-20T16:54:24.688Z,8.63
2018-09-20T16:56:29.739Z,9.23
2018-09-20T16:58:34.668Z,9.37
2018-09-20T17:00:39.760Z,8.53
2018-09-20T17:02:44.558Z,7.97
2018-09-20T17:04:49.504Z,8.13
2018-09-20T17:06:54.509Z,9.80
2018-09-20T17:08:59.502Z,8.83
2018-09-20T17:11:04.379Z,8.20
2018-09-20T17:13:09.085Z,9.20
2018-09-20T17:15:14.189Z,8.30
2018-09-20T17:17:19.207Z,8.33
2018-09-20T17:19:24.451Z,9.40
2018-09-20T17:21:29.458Z,8.30
2018-09-20T17:23:34.225Z,9.30
2018-09-20T17:25:40.872Z,8.77
2018-09-20T17:27:45.930Z,11.23
2018-09-20T17:29:50.739Z,8.10
2018-09-20T17:31:55.730Z,9.70
2018-09-20T17:34:00.386Z,8.53
2018-09-20T17:36:05.337Z,7.87
2018-09-20T17:38:10.339Z,9.63
2018-09-20T17:40:15.250Z,9.07
2018-09-20T17:42:20.084Z,8.93
2018-09-20T17:44:24.914Z,9.80
2018-09-20T17:46:30.712Z,9.40
2018-09-20T17:48:35.573Z,9.23
2018-09-20T17:50:41.349Z,8.27
2018-09-20T17:52:46.159Z,8.63
2018-09-20T17:54:50.956Z,10.60
2018-09-20T17:56:55.696Z,9.43
2018-09-20T17:59:00.829Z,8.40
2018-09-20T18:01:05.809Z,9.90
2018-09-20T18:03:10.971Z,9.87
2018-09-20T18:05:16.003Z,9.23
2018-09-20T18:07:20.940Z,10.07
2018-09-20T18:09:25.936Z,9.37
2018-09-20T18:11:31.065Z,10.53
2018-09-20T18:13:37.365Z,10.40
2018-09-20T18:15:42.431Z,9.97
2018-09-20T18:17:47.365Z,10.57
2018-09-20T18:19:53.951Z,9.33
2018-09-20T18:21:58.801Z,9.50
2018-09-20T18:24:03.916Z,9.83
2018-09-20T18:26:08.955Z,10.90
2018-09-20T18:28:14.056Z,10.07
2018-09-20T18:30:19.055Z,9.37
2018-09-20T18:32:24.152Z,10.17
2018-09-20T18:34:29.283Z,10.20
2018-09-20T18:36:34.266Z,10.10
2018-09-20T18:38:39.181Z,10.87
2018-09-20T18:40:44.405Z,10.80
2018-09-20T18:42:49.929Z,11.50
2018-09-20T18:44:54.994Z,11.00
2018-09-20T18:47:00.315Z,9.67
2018-09-20T18:49:05.321Z,9.27
2018-09-20T18:51:10.226Z,9.83
2018-09-20T18:53:15.192Z,9.27
2018-09-20T18:55:20.313Z,8.97
2018-09-20T18:57:24.929Z,9.40
2018-09-20T18:59:29.818Z,10.57
2018-09-20T19:01:34.610Z,9.30
2018-09-20T19:03:39.804Z,8.50
2018-09-20T19:05:44.605Z,8.70
2018-09-20T19:07:49.714Z,8.23
2018-09-20T19:09:54.552Z,8.73
2018-09-20T19:11:59.568Z,9.77
2018-09-20T19:14:04.355Z,9.83
2018-09-20T19:16:09.194Z,9.03
2018-09-20T19:18:14.182Z,9.40
2018-09-20T19:20:19.824Z,9.47
2018-09-20T19:22:25.046Z,10.70
2018-09-20T19:24:30.081Z,9.37
2018-09-20T19:26:35.180Z,9.37
2018-09-20T19:28:40.175Z,9.70
2018-09-20T19:30:45.181Z,9.23
2018-09-20T19:32:50.075Z,9.60
2018-09-20T19:34:54.804Z,10.17
2018-09-20T19:37:00.042Z,10.17
2018-09-20T19:39:05.351Z,11.13
2018-09-20T19:41:10.415Z,9.70
2018-09-20T19:43:15.557Z,9.97
2018-09-20T19:45:20.725Z,10.17
2018-09-20T19:47:25.630Z,10.80
2018-09-20T19:49:30.354Z,9.37
2018-09-20T19:51:35.252Z,9.60
2018-09-20T19:53:40.518Z,10.00
2018-09-20T19:55:45.325Z,10.97
2018-09-20T19:57:50.617Z,10.97
2018-09-20T19:59:55.686Z,11.83
2018-09-20T20:02:00.470Z,11.30
2018-09-20T20:04:05.422Z,9.70
2018-09-20T20:06:10.416Z,10.77
2018-09-20T20:08:15.542Z,11.00
2018-09-20T20:10:20.579Z,9.63
2018-09-20T20:12:25.835Z,9.83
2018-09-20T20:14:31.417Z,8.87
2018-09-20T20:16:36.450Z,9.83
2018-09-20T20:18:41.778Z,9.73
2018-09-20T20:20:46.680Z,8.97
2018-09-20T20:22:51.933Z,8.70
2018-09-20T20:24:57.344Z,9.93
2018-09-20T20:27:02.660Z,9.20
2018-09-20T20:29:08.133Z,10.50
2018-09-20T20:31:13.707Z,10.07
2018-09-20T20:33:18.611Z,9.27
2018-09-20T20:35:23.551Z,9.90
2018-09-20T20:37:28.579Z,10.37
2018-09-20T20:39:33.485Z,10.10
2018-09-20T20:41:38.694Z,9.47
2018-09-20T20:43:43.771Z,9.47
2018-09-20T20:45:49.393Z,9.93
2018-09-20T20:47:54.611Z,9.90
2018-09-20T20:49:59.627Z,9.60
2018-09-20T20:52:04.574Z,11.97
2018-09-20T20:54:10.012Z,9.50
2018-09-20T20:56:15.106Z,10.73
2018-09-20T20:58:20.096Z,9.37
2018-09-20T21:00:25.469Z,9.20
2018-09-20T21:02:30.763Z,10.27
2018-09-20T21:04:35.913Z,9.80
2018-09-20T21:06:40.752Z,9.63
2018-09-20T21:08:45.714Z,9.60
2018-09-20T21:10:50.632Z,10.37
2018-09-20T21:12:55.683Z,10.37
2018-09-20T21:15:00.778Z,9.57
2018-09-20T21:17:05.959Z,12.90
2018-09-20T21:19:10.889Z,13.00
2018-09-20T21:21:16.843Z,13.80
2018-09-20T21:23:22.617Z,13.10
2018-09-20T21:25:27.610Z,12.67
2018-09-20T21:27:34.301Z,11.70
2018-09-20T21:29:39.350Z,12.77
2018-09-20T21:31:44.286Z,12.77
2018-09-20T21:33:49.344Z,11.50
2018-09-20T21:35:54.521Z,11.10
2018-09-20T21:37:59.734Z,11.30
2018-09-20T21:40:05.073Z,9.80
2018-09-20T21:42:10.117Z,11.87
2018-09-20T21:44:15.448Z,10.30
2018-09-20T21:46:20.711Z,11.23
2018-09-20T21:48:25.845Z,9.50
2018-09-20T21:50:35.585Z,11.20
2018-09-20T21:52:40.865Z,10.97
2018-09-20T21:54:45.986Z,10.43
2018-09-20T21:56:50.883Z,11.73
2018-09-20T21:58:55.950Z,10.03
2018-09-20T22:01:04.336Z,9.93
2018-09-20T22:03:09.195Z,10.97
2018-09-20T22:05:14.234Z,9.57
2018-09-20T22:07:19.431Z,10.23
2018-09-20T22:09:24.467Z,10.40
2018-09-20T22:11:29.255Z,11.20
2018-09-20T22:13:34.401Z,10.00
2018-09-20T22:15:39.465Z,10.03
2018-09-20T22:17:44.279Z,9.77
2018-09-20T22:19:49.162Z,10.33
2018-09-20T22:21:54.272Z,10.83
2018-09-20T22:23:59.263Z,11.10
2018-09-20T22:26:04.162Z,9.70
2018-09-20T22:28:09.074Z,10.43
2018-09-20T22:30:14.256Z,10.73
2018-09-20T22:32:19.083Z,9.83
2018-09-20T22:34:23.864Z,14.30
2018-09-20T22:36:28.973Z,11.87
2018-09-20T22:38:33.934Z,11.13
2018-09-20T22:40:39.007Z,13.30
2018-09-20T22:42:43.923Z,10.40
2018-09-20T22:44:49.212Z,10.13
2018-09-20T22:46:54.144Z,11.27
2018-09-20T22:48:59.063Z,11.57
2018-09-20T22:51:04.288Z,13.23
2018-09-20T22:53:09.134Z,135.30
2018-09-20T22:55:13.842Z,20.23
2018-09-20T22:57:18.690Z,18.63
2018-09-20T22:59:23.786Z,151.57
2018-09-20T23:01:28.879Z,34.30
2018-09-20T23:03:33.863Z,24.30
2018-09-20T23:05:38.663Z,23.23
2018-09-20T23:07:43.540Z,27.70
2018-09-20T23:09:48.408Z,23.77
2018-09-20T23:11:53.442Z,21.50
2018-09-20T23:13:58.691Z,23.20
2018-09-20T23:16:03.545Z,23.27
2018-09-20T23:18:08.450Z,22.87
2018-09-20T23:20:13.509Z,20.40
2018-09-20T23:22:19.571Z,22.27
2018-09-20T23:24:24.421Z,22.77
2018-09-20T23:26:29.401Z,22.83
2018-09-20T23:28:33.792Z,25.30
2018-09-20T23:30:38.696Z,21.80
2018-09-20T23:32:43.658Z,21.40
2018-09-20T23:34:48.612Z,22.27
2018-09-20T23:36:53.607Z,23.13
2018-09-20T23:38:58.747Z,27.40
2018-09-20T23:41:03.633Z,27.80
2018-09-20T23:43:08.518Z,27.50
2018-09-20T23:45:13.420Z,20.83
2018-09-20T23:47:18.342Z,22.53
2018-09-20T23:49:23.174Z,21.00
2018-09-20T23:51:28.157Z,23.47
2018-09-20T23:53:33.279Z,23.20
2018-09-20T23:55:38.269Z,23.90
2018-09-20T23:57:42.999Z,23.57
2018-09-20T23:59:47.894Z,21.37
